sensor_id;sensor_type;location;lat;lon;timestamp;temperature;humidity
1405;DHT22;697;51.114;6.542;2022-07-12T00:01:40;18.90;79.20
1405;DHT22;697;51.114;6.542;2022-07-12T00:04:06;18.90;79.30
1405;DHT22;697;51.114;6.542;2022-07-12T00:06:34;18.90;79.30
1405;DHT22;697;51.114;6.542;2022-07-12T00:09:01;18.90;79.40
1405;DHT22;697;51.114;6.542;2022-07-12T00:11:28;18.80;79.30
1405;DHT22;697;51.114;6.542;2022-07-12T00:13:55;18.80;79.10
1405;DHT22;697;51.114;6.542;2022-07-12T00:16:22;18.80;79.00
1405;DHT22;697;51.114;6.542;2022-07-12T00:18:49;18.70;79.00
1405;DHT22;697;51.114;6.542;2022-07-12T00:21:15;18.70;79.10
1405;DHT22;697;51.114;6.542;2022-07-12T00:23:44;18.70;79.10
1405;DHT22;697;51.114;6.542;2022-07-12T00:26:10;18.60;79.00
1405;DHT22;697;51.114;6.542;2022-07-12T00:28:37;18.60;78.90
1405;DHT22;697;51.114;6.542;2022-07-12T00:31:04;18.50;78.70
1405;DHT22;697;51.114;6.542;2022-07-12T00:33:31;18.50;78.50
1405;DHT22;697;51.114;6.542;2022-07-12T00:35:58;18.40;78.40
1405;DHT22;697;51.114;6.542;2022-07-12T00:38:24;18.40;78.60
1405;DHT22;697;51.114;6.542;2022-07-12T00:40:52;18.40;78.70
1405;DHT22;697;51.114;6.542;2022-07-12T00:43:19;18.40;78.80
1405;DHT22;697;51.114;6.542;2022-07-12T00:45:46;18.40;78.90
1405;DHT22;697;51.114;6.542;2022-07-12T00:48:13;18.30;78.60
1405;DHT22;697;51.114;6.542;2022-07-12T00:50:40;18.30;78.60
1405;DHT22;697;51.114;6.542;2022-07-12T00:53:07;18.20;78.60
1405;DHT22;697;51.114;6.542;2022-07-12T00:55:34;18.20;78.90
1405;DHT22;697;51.114;6.542;2022-07-12T00:58:02;18.20;79.10
1405;DHT22;697;51.114;6.542;2022-07-12T01:00:29;18.20;79.00
1405;DHT22;697;51.114;6.542;2022-07-12T01:02:58;18.20;78.90
1405;DHT22;697;51.114;6.542;2022-07-12T01:05:27;18.10;79.00
1405;DHT22;697;51.114;6.542;2022-07-12T01:07:54;18.00;78.80
1405;DHT22;697;51.114;6.542;2022-07-12T01:10:22;18.00;78.60
1405;DHT22;697;51.114;6.542;2022-07-12T01:12:49;18.00;78.80
1405;DHT22;697;51.114;6.542;2022-07-12T01:15:18;17.90;78.70
1405;DHT22;697;51.114;6.542;2022-07-12T01:17:46;17.80;78.70
1405;DHT22;697;51.114;6.542;2022-07-12T01:20:13;17.70;78.60
1405;DHT22;697;51.114;6.542;2022-07-12T01:22:46;17.70;78.70
1405;DHT22;697;51.114;6.542;2022-07-12T01:25:16;17.70;79.00
1405;DHT22;697;51.114;6.542;2022-07-12T01:27:43;17.70;79.20
1405;DHT22;697;51.114;6.542;2022-07-12T01:30:10;17.60;79.30
1405;DHT22;697;51.114;6.542;2022-07-12T01:32:38;17.60;79.60
1405;DHT22;697;51.114;6.542;2022-07-12T01:35:06;17.50;79.80
1405;DHT22;697;51.114;6.542;2022-07-12T01:37:34;17.50;80.10
1405;DHT22;697;51.114;6.542;2022-07-12T01:40:06;17.50;80.40
1405;DHT22;697;51.114;6.542;2022-07-12T01:42:33;17.40;81.10
1405;DHT22;697;51.114;6.542;2022-07-12T01:44:59;17.40;80.60
1405;DHT22;697;51.114;6.542;2022-07-12T01:47:28;17.40;80.80
1405;DHT22;697;51.114;6.542;2022-07-12T01:49:55;17.40;80.70
1405;DHT22;697;51.114;6.542;2022-07-12T01:52:22;17.40;80.80
1405;DHT22;697;51.114;6.542;2022-07-12T01:54:49;17.40;81.10
1405;DHT22;697;51.114;6.542;2022-07-12T01:57:19;17.40;81.00
1405;DHT22;697;51.114;6.542;2022-07-12T01:59:46;17.40;81.10
1405;DHT22;697;51.114;6.542;2022-07-12T02:02:13;17.40;81.20
1405;DHT22;697;51.114;6.542;2022-07-12T02:04:40;17.40;81.20
1405;DHT22;697;51.114;6.542;2022-07-12T02:07:07;17.40;81.20
1405;DHT22;697;51.114;6.542;2022-07-12T02:09:34;17.40;81.00
1405;DHT22;697;51.114;6.542;2022-07-12T02:12:00;17.40;81.20
1405;DHT22;697;51.114;6.542;2022-07-12T02:14:28;17.40;81.40
1405;DHT22;697;51.114;6.542;2022-07-12T02:16:55;17.40;81.50
1405;DHT22;697;51.114;6.542;2022-07-12T02:19:22;17.40;81.50
1405;DHT22;697;51.114;6.542;2022-07-12T02:21:49;17.40;81.30
1405;DHT22;697;51.114;6.542;2022-07-12T02:24:16;17.40;81.50
1405;DHT22;697;51.114;6.542;2022-07-12T02:26:43;17.40;81.60
1405;DHT22;697;51.114;6.542;2022-07-12T02:29:09;17.40;81.60
1405;DHT22;697;51.114;6.542;2022-07-12T02:31:38;17.40;81.80
1405;DHT22;697;51.114;6.542;2022-07-12T02:34:05;17.40;82.20
1405;DHT22;697;51.114;6.542;2022-07-12T02:36:32;17.30;82.20
1405;DHT22;697;51.114;6.542;2022-07-12T02:38:59;17.30;82.20
1405;DHT22;697;51.114;6.542;2022-07-12T02:41:28;17.30;82.10
1405;DHT22;697;51.114;6.542;2022-07-12T02:43:55;17.30;82.10
1405;DHT22;697;51.114;6.542;2022-07-12T02:46:22;17.30;82.10
1405;DHT22;697;51.114;6.542;2022-07-12T02:48:50;17.30;82.10
1405;DHT22;697;51.114;6.542;2022-07-12T02:51:17;17.30;82.20
1405;DHT22;697;51.114;6.542;2022-07-12T02:53:44;17.30;82.00
1405;DHT22;697;51.114;6.542;2022-07-12T02:56:11;17.30;81.60
1405;DHT22;697;51.114;6.542;2022-07-12T02:58:38;17.20;81.30
1405;DHT22;697;51.114;6.542;2022-07-12T03:01:05;17.20;80.90
1405;DHT22;697;51.114;6.542;2022-07-12T03:03:31;17.10;80.20
1405;DHT22;697;51.114;6.542;2022-07-12T03:06:00;17.00;80.00
1405;DHT22;697;51.114;6.542;2022-07-12T03:08:26;17.00;80.10
1405;DHT22;697;51.114;6.542;2022-07-12T03:10:53;16.90;79.80
1405;DHT22;697;51.114;6.542;2022-07-12T03:13:20;16.90;80.00
1405;DHT22;697;51.114;6.542;2022-07-12T03:15:50;16.80;80.00
1405;DHT22;697;51.114;6.542;2022-07-12T03:18:17;16.80;80.00
1405;DHT22;697;51.114;6.542;2022-07-12T03:20:43;16.70;79.70
1405;DHT22;697;51.114;6.542;2022-07-12T03:23:11;16.70;79.80
1405;DHT22;697;51.114;6.542;2022-07-12T03:25:38;16.70;79.90
1405;DHT22;697;51.114;6.542;2022-07-12T03:28:05;16.60;80.10
1405;DHT22;697;51.114;6.542;2022-07-12T03:30:32;16.60;80.30
1405;DHT22;697;51.114;6.542;2022-07-12T03:32:58;16.60;80.40
1405;DHT22;697;51.114;6.542;2022-07-12T03:35:25;16.60;80.80
1405;DHT22;697;51.114;6.542;2022-07-12T03:37:52;16.60;81.00
1405;DHT22;697;51.114;6.542;2022-07-12T03:40:21;16.60;81.10
1405;DHT22;697;51.114;6.542;2022-07-12T03:42:48;16.60;81.00
1405;DHT22;697;51.114;6.542;2022-07-12T03:45:15;16.60;81.10
1405;DHT22;697;51.114;6.542;2022-07-12T03:47:42;16.60;81.30
1405;DHT22;697;51.114;6.542;2022-07-12T03:50:10;16.60;81.40
1405;DHT22;697;51.114;6.542;2022-07-12T03:52:38;16.60;81.70
1405;DHT22;697;51.114;6.542;2022-07-12T03:55:06;16.60;81.70
1405;DHT22;697;51.114;6.542;2022-07-12T03:57:35;16.60;81.70
1405;DHT22;697;51.114;6.542;2022-07-12T04:00:04;16.50;81.50
1405;DHT22;697;51.114;6.542;2022-07-12T04:02:31;16.50;81.60
1405;DHT22;697;51.114;6.542;2022-07-12T04:04:58;16.50;81.60
1405;DHT22;697;51.114;6.542;2022-07-12T04:07:25;16.50;81.50
1405;DHT22;697;51.114;6.542;2022-07-12T04:09:51;16.50;81.40
1405;DHT22;697;51.114;6.542;2022-07-12T04:12:18;16.40;81.20
1405;DHT22;697;51.114;6.542;2022-07-12T04:14:46;16.40;81.40
1405;DHT22;697;51.114;6.542;2022-07-12T04:17:13;16.40;81.70
1405;DHT22;697;51.114;6.542;2022-07-12T04:19:40;16.40;82.00
1405;DHT22;697;51.114;6.542;2022-07-12T04:22:06;16.40;82.20
1405;DHT22;697;51.114;6.542;2022-07-12T04:24:33;16.30;82.30
1405;DHT22;697;51.114;6.542;2022-07-12T04:27:00;16.30;82.40
1405;DHT22;697;51.114;6.542;2022-07-12T04:29:27;16.30;82.80
1405;DHT22;697;51.114;6.542;2022-07-12T04:31:55;16.30;83.00
1405;DHT22;697;51.114;6.542;2022-07-12T04:34:22;16.30;83.10
1405;DHT22;697;51.114;6.542;2022-07-12T04:36:48;16.40;83.60
1405;DHT22;697;51.114;6.542;2022-07-12T04:39:15;16.40;83.90
1405;DHT22;697;51.114;6.542;2022-07-12T04:41:42;16.40;84.10
1405;DHT22;697;51.114;6.542;2022-07-12T04:44:08;16.40;84.40
1405;DHT22;697;51.114;6.542;2022-07-12T04:46:36;16.50;84.80
1405;DHT22;697;51.114;6.542;2022-07-12T04:49:04;16.60;85.20
1405;DHT22;697;51.114;6.542;2022-07-12T04:51:31;16.60;85.50
1405;DHT22;697;51.114;6.542;2022-07-12T04:53:58;16.60;85.90
1405;DHT22;697;51.114;6.542;2022-07-12T04:56:25;16.60;86.20
1405;DHT22;697;51.114;6.542;2022-07-12T04:58:52;16.60;86.50
1405;DHT22;697;51.114;6.542;2022-07-12T05:01:18;16.70;86.90
1405;DHT22;697;51.114;6.542;2022-07-12T05:03:45;16.70;87.20
1405;DHT22;697;51.114;6.542;2022-07-12T05:06:14;16.80;87.80
1405;DHT22;697;51.114;6.542;2022-07-12T05:08:40;16.80;88.20
1405;DHT22;697;51.114;6.542;2022-07-12T05:11:07;16.90;88.60
1405;DHT22;697;51.114;6.542;2022-07-12T05:13:34;16.90;88.70
1405;DHT22;697;51.114;6.542;2022-07-12T05:16:01;17.00;89.90
1405;DHT22;697;51.114;6.542;2022-07-12T05:18:27;17.10;90.60
1405;DHT22;697;51.114;6.542;2022-07-12T05:20:55;17.20;91.10
1405;DHT22;697;51.114;6.542;2022-07-12T05:23:23;17.30;91.40
1405;DHT22;697;51.114;6.542;2022-07-12T05:25:50;17.40;91.90
1405;DHT22;697;51.114;6.542;2022-07-12T05:28:16;17.60;92.10
1405;DHT22;697;51.114;6.542;2022-07-12T05:30:43;17.60;92.30
1405;DHT22;697;51.114;6.542;2022-07-12T05:33:10;17.70;92.40
1405;DHT22;697;51.114;6.542;2022-07-12T05:35:37;17.80;92.60
1405;DHT22;697;51.114;6.542;2022-07-12T05:38:04;17.80;93.10
1405;DHT22;697;51.114;6.542;2022-07-12T05:40:32;17.90;93.00
1405;DHT22;697;51.114;6.542;2022-07-12T05:43:00;18.00;93.20
1405;DHT22;697;51.114;6.542;2022-07-12T05:45:26;18.00;93.20
1405;DHT22;697;51.114;6.542;2022-07-12T05:47:53;18.00;93.20
1405;DHT22;697;51.114;6.542;2022-07-12T05:50:20;18.10;93.30
1405;DHT22;697;51.114;6.542;2022-07-12T05:52:46;18.20;93.30
1405;DHT22;697;51.114;6.542;2022-07-12T05:55:32;18.30;93.40
1405;DHT22;697;51.114;6.542;2022-07-12T05:57:59;18.40;93.40
1405;DHT22;697;51.114;6.542;2022-07-12T06:00:26;18.50;92.90
1405;DHT22;697;51.114;6.542;2022-07-12T06:02:52;18.60;92.50
1405;DHT22;697;51.114;6.542;2022-07-12T06:05:19;18.70;93.10
1405;DHT22;697;51.114;6.542;2022-07-12T06:07:46;18.70;92.90
1405;DHT22;697;51.114;6.542;2022-07-12T06:10:12;18.90;92.40
1405;DHT22;697;51.114;6.542;2022-07-12T06:12:41;19.00;92.70
1405;DHT22;697;51.114;6.542;2022-07-12T06:15:08;19.10;92.40
1405;DHT22;697;51.114;6.542;2022-07-12T06:17:35;19.20;92.40
1405;DHT22;697;51.114;6.542;2022-07-12T06:20:02;19.30;92.10
1405;DHT22;697;51.114;6.542;2022-07-12T06:22:29;19.40;91.70
1405;DHT22;697;51.114;6.542;2022-07-12T06:24:56;19.50;91.80
1405;DHT22;697;51.114;6.542;2022-07-12T06:27:23;19.70;91.90
1405;DHT22;697;51.114;6.542;2022-07-12T06:29:51;19.80;91.40
1405;DHT22;697;51.114;6.542;2022-07-12T06:32:18;20.00;91.00
1405;DHT22;697;51.114;6.542;2022-07-12T06:34:45;20.20;91.30
1405;DHT22;697;51.114;6.542;2022-07-12T06:37:11;20.30;90.90
1405;DHT22;697;51.114;6.542;2022-07-12T06:39:40;20.50;90.90
1405;DHT22;697;51.114;6.542;2022-07-12T06:42:07;20.60;90.60
1405;DHT22;697;51.114;6.542;2022-07-12T06:44:34;20.80;90.60
1405;DHT22;697;51.114;6.542;2022-07-12T06:47:03;21.00;90.60
1405;DHT22;697;51.114;6.542;2022-07-12T06:49:30;21.20;90.20
1405;DHT22;697;51.114;6.542;2022-07-12T06:51:56;21.30;88.20
1405;DHT22;697;51.114;6.542;2022-07-12T06:54:23;21.50;86.50
1405;DHT22;697;51.114;6.542;2022-07-12T06:56:50;21.60;84.40
1405;DHT22;697;51.114;6.542;2022-07-12T06:59:18;21.80;85.80
1405;DHT22;697;51.114;6.542;2022-07-12T07:01:44;22.00;86.80
1405;DHT22;697;51.114;6.542;2022-07-12T07:04:12;22.10;86.40
1405;DHT22;697;51.114;6.542;2022-07-12T07:06:39;22.40;85.80
1405;DHT22;697;51.114;6.542;2022-07-12T07:09:06;22.60;84.60
1405;DHT22;697;51.114;6.542;2022-07-12T07:11:34;22.90;82.20
1405;DHT22;697;51.114;6.542;2022-07-12T07:14:01;23.20;79.60
1405;DHT22;697;51.114;6.542;2022-07-12T07:16:28;23.30;77.10
1405;DHT22;697;51.114;6.542;2022-07-12T07:18:54;23.60;75.20
1405;DHT22;697;51.114;6.542;2022-07-12T07:21:23;23.80;73.60
1405;DHT22;697;51.114;6.542;2022-07-12T07:23:50;24.10;72.40
1405;DHT22;697;51.114;6.542;2022-07-12T07:26:17;24.30;70.80
1405;DHT22;697;51.114;6.542;2022-07-12T07:28:43;24.60;69.60
1405;DHT22;697;51.114;6.542;2022-07-12T07:31:28;24.80;68.90
1405;DHT22;697;51.114;6.542;2022-07-12T07:33:54;24.90;68.40
1405;DHT22;697;51.114;6.542;2022-07-12T07:36:22;25.10;68.60
1405;DHT22;697;51.114;6.542;2022-07-12T07:38:49;25.20;67.00
1405;DHT22;697;51.114;6.542;2022-07-12T07:41:16;25.40;66.00
1405;DHT22;697;51.114;6.542;2022-07-12T07:43:43;25.70;64.60
1405;DHT22;697;51.114;6.542;2022-07-12T07:46:09;25.80;63.10
1405;DHT22;697;51.114;6.542;2022-07-12T07:48:36;26.00;62.00
1405;DHT22;697;51.114;6.542;2022-07-12T07:51:03;26.20;60.90
1405;DHT22;697;51.114;6.542;2022-07-12T07:53:31;26.40;61.20
1405;DHT22;697;51.114;6.542;2022-07-12T07:55:58;26.60;60.40
1405;DHT22;697;51.114;6.542;2022-07-12T07:58:24;26.80;59.60
1405;DHT22;697;51.114;6.542;2022-07-12T08:00:51;27.00;59.10
1405;DHT22;697;51.114;6.542;2022-07-12T08:03:19;27.10;57.80
1405;DHT22;697;51.114;6.542;2022-07-12T08:05:46;27.20;56.70
1405;DHT22;697;51.114;6.542;2022-07-12T08:08:13;27.30;57.20
1405;DHT22;697;51.114;6.542;2022-07-12T08:10:41;27.40;56.80
1405;DHT22;697;51.114;6.542;2022-07-12T08:13:08;27.50;55.40
1405;DHT22;697;51.114;6.542;2022-07-12T08:15:35;27.70;55.40
1405;DHT22;697;51.114;6.542;2022-07-12T08:18:01;27.70;55.90
1405;DHT22;697;51.114;6.542;2022-07-12T08:20:29;27.70;56.40
1405;DHT22;697;51.114;6.542;2022-07-12T08:22:55;27.80;55.20
1405;DHT22;697;51.114;6.542;2022-07-12T08:25:22;27.70;53.80
1405;DHT22;697;51.114;6.542;2022-07-12T08:27:50;27.70;54.00
1405;DHT22;697;51.114;6.542;2022-07-12T08:30:17;27.80;53.80
1405;DHT22;697;51.114;6.542;2022-07-12T08:32:44;28.00;53.70
1405;DHT22;697;51.114;6.542;2022-07-12T08:35:11;28.30;53.40
1405;DHT22;697;51.114;6.542;2022-07-12T08:37:39;28.60;52.40
1405;DHT22;697;51.114;6.542;2022-07-12T08:40:07;28.80;52.10
1405;DHT22;697;51.114;6.542;2022-07-12T08:42:35;29.00;52.60
1405;DHT22;697;51.114;6.542;2022-07-12T08:45:04;29.10;51.20
1405;DHT22;697;51.114;6.542;2022-07-12T08:47:31;29.20;49.90
1405;DHT22;697;51.114;6.542;2022-07-12T08:50:15;29.40;50.20
1405;DHT22;697;51.114;6.542;2022-07-12T08:52:44;29.70;47.70
1405;DHT22;697;51.114;6.542;2022-07-12T08:55:19;29.80;46.50
1405;DHT22;697;51.114;6.542;2022-07-12T08:57:46;29.90;45.80
1405;DHT22;697;51.114;6.542;2022-07-12T09:00:15;30.00;46.20
1405;DHT22;697;51.114;6.542;2022-07-12T09:02:49;30.20;46.10
1405;DHT22;697;51.114;6.542;2022-07-12T09:05:17;30.50;46.20
1405;DHT22;697;51.114;6.542;2022-07-12T09:07:45;30.80;45.90
1405;DHT22;697;51.114;6.542;2022-07-12T09:10:13;31.10;44.80
1405;DHT22;697;51.114;6.542;2022-07-12T09:12:41;31.40;43.10
1405;DHT22;697;51.114;6.542;2022-07-12T09:15:20;31.70;42.80
1405;DHT22;697;51.114;6.542;2022-07-12T09:17:55;32.00;43.50
1405;DHT22;697;51.114;6.542;2022-07-12T09:20:23;32.30;42.30
1405;DHT22;697;51.114;6.542;2022-07-12T09:22:52;32.40;41.20
1405;DHT22;697;51.114;6.542;2022-07-12T09:25:20;32.40;40.50
1405;DHT22;697;51.114;6.542;2022-07-12T09:27:48;32.60;40.00
1405;DHT22;697;51.114;6.542;2022-07-12T09:30:18;32.80;40.30
1405;DHT22;697;51.114;6.542;2022-07-12T09:32:52;33.10;40.30
1405;DHT22;697;51.114;6.542;2022-07-12T09:35:37;33.30;39.40
1405;DHT22;697;51.114;6.542;2022-07-12T09:38:21;33.30;38.50
1405;DHT22;697;51.114;6.542;2022-07-12T09:40:48;33.40;38.00
1405;DHT22;697;51.114;6.542;2022-07-12T09:43:16;33.60;38.00
1405;DHT22;697;51.114;6.542;2022-07-12T09:45:46;33.70;37.10
1405;DHT22;697;51.114;6.542;2022-07-12T09:48:14;33.70;39.00
1405;DHT22;697;51.114;6.542;2022-07-12T09:50:43;33.70;37.80
1405;DHT22;697;51.114;6.542;2022-07-12T09:53:17;33.80;36.80
1405;DHT22;697;51.114;6.542;2022-07-12T09:55:50;34.00;37.00
1405;DHT22;697;51.114;6.542;2022-07-12T09:58:24;34.00;35.70
1405;DHT22;697;51.114;6.542;2022-07-12T10:00:53;34.00;35.70
1405;DHT22;697;51.114;6.542;2022-07-12T10:03:21;34.00;35.70
1405;DHT22;697;51.114;6.542;2022-07-12T10:05:50;34.20;35.10
1405;DHT22;697;51.114;6.542;2022-07-12T10:08:19;34.50;35.50
1405;DHT22;697;51.114;6.542;2022-07-12T10:10:47;34.70;36.00
1405;DHT22;697;51.114;6.542;2022-07-12T10:13:15;34.90;35.20
1405;DHT22;697;51.114;6.542;2022-07-12T10:15:42;35.20;34.70
1405;DHT22;697;51.114;6.542;2022-07-12T10:18:17;35.60;34.20
1405;DHT22;697;51.114;6.542;2022-07-12T10:20:45;36.10;34.00
1405;DHT22;697;51.114;6.542;2022-07-12T10:23:36;36.50;32.70
1405;DHT22;697;51.114;6.542;2022-07-12T10:26:29;36.90;31.40
1405;DHT22;697;51.114;6.542;2022-07-12T10:29:05;37.40;31.50
1405;DHT22;697;51.114;6.542;2022-07-12T10:31:34;37.90;31.40
1405;DHT22;697;51.114;6.542;2022-07-12T10:34:20;38.30;30.80
1405;DHT22;697;51.114;6.542;2022-07-12T10:37:08;38.70;29.40
1405;DHT22;697;51.114;6.542;2022-07-12T10:39:35;39.20;28.10
1405;DHT22;697;51.114;6.542;2022-07-12T10:42:16;39.50;26.30
1405;DHT22;697;51.114;6.542;2022-07-12T10:44:45;39.90;26.70
1405;DHT22;697;51.114;6.542;2022-07-12T10:47:13;40.30;25.00
1405;DHT22;697;51.114;6.542;2022-07-12T10:49:48;40.60;24.30
1405;DHT22;697;51.114;6.542;2022-07-12T10:52:17;40.90;23.50
1405;DHT22;697;51.114;6.542;2022-07-12T10:55:16;41.30;23.30
1405;DHT22;697;51.114;6.542;2022-07-12T10:57:44;41.70;23.70
1405;DHT22;697;51.114;6.542;2022-07-12T11:00:13;41.80;23.60
1405;DHT22;697;51.114;6.542;2022-07-12T11:02:41;41.70;23.60
1405;DHT22;697;51.114;6.542;2022-07-12T11:05:10;41.90;23.90
1405;DHT22;697;51.114;6.542;2022-07-12T11:07:37;42.20;23.20
1405;DHT22;697;51.114;6.542;2022-07-12T11:10:05;42.50;22.90
1405;DHT22;697;51.114;6.542;2022-07-12T11:12:32;42.60;22.50
1405;DHT22;697;51.114;6.542;2022-07-12T11:15:00;42.80;22.60
1405;DHT22;697;51.114;6.542;2022-07-12T11:17:28;43.10;22.50
1405;DHT22;697;51.114;6.542;2022-07-12T11:20:07;43.70;22.30
1405;DHT22;697;51.114;6.542;2022-07-12T11:22:37;44.10;21.10
1405;DHT22;697;51.114;6.542;2022-07-12T11:25:07;44.30;20.20
1405;DHT22;697;51.114;6.542;2022-07-12T11:27:34;44.30;21.00
1405;DHT22;697;51.114;6.542;2022-07-12T11:30:03;44.30;20.00
1405;DHT22;697;51.114;6.542;2022-07-12T11:32:37;44.40;20.10
1405;DHT22;697;51.114;6.542;2022-07-12T11:35:17;44.50;19.70
1405;DHT22;697;51.114;6.542;2022-07-12T11:37:49;44.60;20.10
1405;DHT22;697;51.114;6.542;2022-07-12T11:40:21;44.80;20.60
1405;DHT22;697;51.114;6.542;2022-07-12T11:42:53;45.20;19.20
1405;DHT22;697;51.114;6.542;2022-07-12T11:45:19;45.60;19.20
1405;DHT22;697;51.114;6.542;2022-07-12T11:47:46;45.90;18.30
1405;DHT22;697;51.114;6.542;2022-07-12T11:50:17;46.20;18.20
1405;DHT22;697;51.114;6.542;2022-07-12T11:52:44;46.50;18.90
1405;DHT22;697;51.114;6.542;2022-07-12T11:55:12;46.80;18.50
1405;DHT22;697;51.114;6.542;2022-07-12T11:57:39;47.00;18.60
1405;DHT22;697;51.114;6.542;2022-07-12T12:00:14;47.30;18.80
1405;DHT22;697;51.114;6.542;2022-07-12T12:02:41;47.60;18.60
1405;DHT22;697;51.114;6.542;2022-07-12T12:05:08;47.80;16.60
1405;DHT22;697;51.114;6.542;2022-07-12T12:07:35;47.90;17.20
1405;DHT22;697;51.114;6.542;2022-07-12T12:10:04;47.60;16.30
1405;DHT22;697;51.114;6.542;2022-07-12T12:12:40;47.70;17.30
1405;DHT22;697;51.114;6.542;2022-07-12T12:15:09;47.70;16.90
1405;DHT22;697;51.114;6.542;2022-07-12T12:17:42;47.70;16.60
1405;DHT22;697;51.114;6.542;2022-07-12T12:20:11;47.80;17.00
1405;DHT22;697;51.114;6.542;2022-07-12T12:22:38;48.00;15.70
1405;DHT22;697;51.114;6.542;2022-07-12T12:25:06;48.20;15.80
1405;DHT22;697;51.114;6.542;2022-07-12T12:27:42;48.40;15.80
1405;DHT22;697;51.114;6.542;2022-07-12T12:30:10;48.70;16.00
1405;DHT22;697;51.114;6.542;2022-07-12T12:32:48;49.00;15.70
1405;DHT22;697;51.114;6.542;2022-07-12T12:35:16;49.10;15.40
1405;DHT22;697;51.114;6.542;2022-07-12T12:37:50;48.90;15.70
1405;DHT22;697;51.114;6.542;2022-07-12T12:40:22;48.70;16.00
1405;DHT22;697;51.114;6.542;2022-07-12T12:42:51;48.80;16.60
1405;DHT22;697;51.114;6.542;2022-07-12T12:45:19;49.10;16.30
1405;DHT22;697;51.114;6.542;2022-07-12T12:47:56;49.50;15.80
1405;DHT22;697;51.114;6.542;2022-07-12T12:50:40;49.60;14.60
1405;DHT22;697;51.114;6.542;2022-07-12T12:53:11;49.50;15.30
1405;DHT22;697;51.114;6.542;2022-07-12T12:55:39;49.40;15.20
1405;DHT22;697;51.114;6.542;2022-07-12T12:58:07;49.20;15.20
1405;DHT22;697;51.114;6.542;2022-07-12T13:00:36;48.90;14.90
1405;DHT22;697;51.114;6.542;2022-07-12T13:03:05;48.30;14.90
1405;DHT22;697;51.114;6.542;2022-07-12T13:05:32;47.80;15.70
1405;DHT22;697;51.114;6.542;2022-07-12T13:07:59;47.60;16.00
1405;DHT22;697;51.114;6.542;2022-07-12T13:10:26;47.50;16.80
1405;DHT22;697;51.114;6.542;2022-07-12T13:12:53;47.30;16.00
1405;DHT22;697;51.114;6.542;2022-07-12T13:15:21;46.90;16.10
1405;DHT22;697;51.114;6.542;2022-07-12T13:17:48;46.80;16.40
1405;DHT22;697;51.114;6.542;2022-07-12T13:20:15;46.90;17.10
1405;DHT22;697;51.114;6.542;2022-07-12T13:22:43;47.00;17.20
1405;DHT22;697;51.114;6.542;2022-07-12T13:25:11;47.00;14.80
1405;DHT22;697;51.114;6.542;2022-07-12T13:27:38;46.90;15.40
1405;DHT22;697;51.114;6.542;2022-07-12T13:30:07;46.90;14.80
1405;DHT22;697;51.114;6.542;2022-07-12T13:32:37;46.90;16.50
1405;DHT22;697;51.114;6.542;2022-07-12T13:35:05;46.90;15.80
1405;DHT22;697;51.114;6.542;2022-07-12T13:37:33;46.90;15.20
1405;DHT22;697;51.114;6.542;2022-07-12T13:40:00;47.00;16.50
1405;DHT22;697;51.114;6.542;2022-07-12T13:42:44;47.10;15.60
1405;DHT22;697;51.114;6.542;2022-07-12T13:45:13;47.30;15.60
1405;DHT22;697;51.114;6.542;2022-07-12T13:47:42;47.20;13.90
1405;DHT22;697;51.114;6.542;2022-07-12T13:50:10;46.70;15.00
1405;DHT22;697;51.114;6.542;2022-07-12T13:52:37;46.50;15.50
1405;DHT22;697;51.114;6.542;2022-07-12T13:55:06;46.30;15.10
1405;DHT22;697;51.114;6.542;2022-07-12T13:57:34;46.20;16.20
1405;DHT22;697;51.114;6.542;2022-07-12T14:00:02;46.20;15.70
1405;DHT22;697;51.114;6.542;2022-07-12T14:02:29;46.10;15.60
1405;DHT22;697;51.114;6.542;2022-07-12T14:04:57;45.80;16.10
1405;DHT22;697;51.114;6.542;2022-07-12T14:07:24;45.50;17.50
1405;DHT22;697;51.114;6.542;2022-07-12T14:09:51;45.20;17.10
1405;DHT22;697;51.114;6.542;2022-07-12T14:12:18;45.00;17.80
1405;DHT22;697;51.114;6.542;2022-07-12T14:14:44;44.90;17.80
1405;DHT22;697;51.114;6.542;2022-07-12T14:17:29;44.80;18.20
1405;DHT22;697;51.114;6.542;2022-07-12T14:19:57;44.80;17.60
1405;DHT22;697;51.114;6.542;2022-07-12T14:22:24;44.70;17.70
1405;DHT22;697;51.114;6.542;2022-07-12T14:24:51;44.70;18.00
1405;DHT22;697;51.114;6.542;2022-07-12T14:27:18;44.80;17.30
1405;DHT22;697;51.114;6.542;2022-07-12T14:29:45;44.70;17.80
1405;DHT22;697;51.114;6.542;2022-07-12T14:32:12;44.60;17.30
1405;DHT22;697;51.114;6.542;2022-07-12T14:34:39;44.60;18.10
1405;DHT22;697;51.114;6.542;2022-07-12T14:37:07;44.50;17.70
1405;DHT22;697;51.114;6.542;2022-07-12T14:39:34;44.40;18.30
1405;DHT22;697;51.114;6.542;2022-07-12T14:42:01;44.50;18.20
1405;DHT22;697;51.114;6.542;2022-07-12T14:44:27;44.60;18.40
1405;DHT22;697;51.114;6.542;2022-07-12T14:46:54;44.90;17.90
1405;DHT22;697;51.114;6.542;2022-07-12T14:49:21;44.80;17.20
1405;DHT22;697;51.114;6.542;2022-07-12T14:51:48;44.20;16.80
1405;DHT22;697;51.114;6.542;2022-07-12T14:54:17;43.80;18.80
1405;DHT22;697;51.114;6.542;2022-07-12T14:56:44;43.30;19.10
1405;DHT22;697;51.114;6.542;2022-07-12T14:59:10;42.90;19.20
1405;DHT22;697;51.114;6.542;2022-07-12T15:01:37;42.60;20.00
1405;DHT22;697;51.114;6.542;2022-07-12T15:04:04;42.20;20.40
1405;DHT22;697;51.114;6.542;2022-07-12T15:06:31;41.90;20.20
1405;DHT22;697;51.114;6.542;2022-07-12T15:08:58;41.90;20.90
1405;DHT22;697;51.114;6.542;2022-07-12T15:11:26;41.80;20.60
1405;DHT22;697;51.114;6.542;2022-07-12T15:13:53;42.10;21.20
1405;DHT22;697;51.114;6.542;2022-07-12T15:16:20;42.60;19.90
1405;DHT22;697;51.114;6.542;2022-07-12T15:18:46;43.10;19.30
1405;DHT22;697;51.114;6.542;2022-07-12T15:21:14;43.60;19.40
1405;DHT22;697;51.114;6.542;2022-07-12T15:23:41;44.30;19.10
1405;DHT22;697;51.114;6.542;2022-07-12T15:26:08;44.80;17.50
1405;DHT22;697;51.114;6.542;2022-07-12T15:28:49;45.30;17.80
1405;DHT22;697;51.114;6.542;2022-07-12T15:31:16;45.70;17.10
1405;DHT22;697;51.114;6.542;2022-07-12T15:33:43;45.80;16.80
1405;DHT22;697;51.114;6.542;2022-07-12T15:36:10;45.90;16.00
1405;DHT22;697;51.114;6.542;2022-07-12T15:38:37;45.50;16.00
1405;DHT22;697;51.114;6.542;2022-07-12T15:41:04;45.00;17.20
1405;DHT22;697;51.114;6.542;2022-07-12T15:43:30;44.60;18.00
1405;DHT22;697;51.114;6.542;2022-07-12T15:45:59;44.30;18.90
1405;DHT22;697;51.114;6.542;2022-07-12T15:48:26;43.90;17.90
1405;DHT22;697;51.114;6.542;2022-07-12T15:50:53;43.60;18.00
1405;DHT22;697;51.114;6.542;2022-07-12T15:53:19;43.30;18.80
1405;DHT22;697;51.114;6.542;2022-07-12T15:55:56;43.20;19.30
1405;DHT22;697;51.114;6.542;2022-07-12T15:58:25;43.00;18.00
1405;DHT22;697;51.114;6.542;2022-07-12T16:00:52;42.80;17.90
1405;DHT22;697;51.114;6.542;2022-07-12T16:03:21;42.60;19.00
1405;DHT22;697;51.114;6.542;2022-07-12T16:05:48;42.20;19.00
1405;DHT22;697;51.114;6.542;2022-07-12T16:08:15;42.00;19.60
1405;DHT22;697;51.114;6.542;2022-07-12T16:10:42;41.80;19.70
1405;DHT22;697;51.114;6.542;2022-07-12T16:13:08;41.50;19.50
1405;DHT22;697;51.114;6.542;2022-07-12T16:15:35;41.20;19.90
1405;DHT22;697;51.114;6.542;2022-07-12T16:18:03;40.90;20.40
1405;DHT22;697;51.114;6.542;2022-07-12T16:20:32;40.60;21.00
1405;DHT22;697;51.114;6.542;2022-07-12T16:22:59;40.30;21.50
1405;DHT22;697;51.114;6.542;2022-07-12T16:25:26;40.00;21.60